createdAt,value
2022-10-01T00:01:46.136Z,3.42
2022-10-01T00:04:15.303Z,4.28
2022-10-01T00:06:44.941Z,3.88
2022-10-01T00:09:11.834Z,3.20
2022-10-01T00:11:38.482Z,2.90
2022-10-01T00:14:08.409Z,3.70
2022-10-01T00:16:34.988Z,5.97
2022-10-01T00:19:01.750Z,11.90
2022-10-01T00:21:34.199Z,13.52
2022-10-01T00:24:08.361Z,12.30
2022-10-01T00:26:37.813Z,10.15
2022-10-01T00:29:14.591Z,8.73
2022-10-01T00:31:45.790Z,8.95
2022-10-01T00:34:15.492Z,9.57
2022-10-01T00:36:44.280Z,8.43
2022-10-01T00:39:13.753Z,6.03
2022-10-01T00:41:41.268Z,5.13
2022-10-01T00:44:34.113Z,4.70
2022-10-01T00:47:12.565Z,5.05
2022-10-01T00:49:41.027Z,4.67
2022-10-01T00:52:13.924Z,4.30
2022-10-01T00:54:43.389Z,3.75
2022-10-01T00:57:14.211Z,4.45
2022-10-01T00:59:40.963Z,3.83
2022-10-01T01:02:07.536Z,4.10
2022-10-01T01:04:34.132Z,4.18
2022-10-01T01:07:03.944Z,4.40
2022-10-01T01:09:44.569Z,4.20
2022-10-01T01:12:22.170Z,4.00
2022-10-01T01:14:54.430Z,3.80
2022-10-01T01:17:29.955Z,4.82
2022-10-01T01:20:14.551Z,4.00
2022-10-01T01:22:50.598Z,4.47
2022-10-01T01:25:25.307Z,4.35
2022-10-01T01:28:24.200Z,3.90
2022-10-01T01:30:57.012Z,4.20
2022-10-01T01:33:28.308Z,4.50
2022-10-01T01:36:00.343Z,4.07
2022-10-01T01:38:33.219Z,3.80
2022-10-01T01:41:03.845Z,4.07
2022-10-01T01:43:35.649Z,4.00
2022-10-01T01:46:08.711Z,3.88
2022-10-01T01:48:38.879Z,3.97
2022-10-01T01:51:19.250Z,4.30
2022-10-01T01:53:46.153Z,4.90
2022-10-01T01:56:18.182Z,4.88
2022-10-01T01:58:51.113Z,4.65
2022-10-01T02:01:39.220Z,4.88
2022-10-01T02:04:26.357Z,4.78
2022-10-01T02:06:53.613Z,4.60
2022-10-01T02:09:28.358Z,4.45
2022-10-01T02:12:24.405Z,3.85
2022-10-01T02:15:02.713Z,4.93
2022-10-01T02:17:40.478Z,4.38
2022-10-01T02:20:15.616Z,4.93
2022-10-01T02:23:06.893Z,5.13
2022-10-01T02:25:40.351Z,5.25
2022-10-01T02:28:11.435Z,5.25
2022-10-01T02:30:40.114Z,5.55
2022-10-01T02:33:10.187Z,5.50
2022-10-01T02:35:40.012Z,5.50
2022-10-01T02:38:11.637Z,5.28
2022-10-01T02:40:43.897Z,5.75
2022-10-01T02:43:21.278Z,5.72
2022-10-01T02:45:56.614Z,5.33
2022-10-01T02:48:23.743Z,5.93
2022-10-01T02:50:54.503Z,5.28
2022-10-01T02:53:29.277Z,6.00
2022-10-01T02:55:59.852Z,5.55
2022-10-01T02:58:28.979Z,5.23
2022-10-01T03:00:57.736Z,5.40
2022-10-01T03:03:26.488Z,5.47
2022-10-01T03:05:53.469Z,5.18
2022-10-01T03:08:20.411Z,5.00
2022-10-01T03:10:47.082Z,5.17
2022-10-01T03:13:18.959Z,4.90
2022-10-01T03:15:50.937Z,5.97
2022-10-01T03:18:17.696Z,5.30
2022-10-01T03:20:47.587Z,5.35
2022-10-01T03:23:14.158Z,5.67
2022-10-01T03:25:40.669Z,5.40
2022-10-01T03:28:09.513Z,5.63
2022-10-01T03:30:36.154Z,5.55
2022-10-01T03:33:04.801Z,5.50
2022-10-01T03:35:32.261Z,5.07
2022-10-01T03:37:59.036Z,5.68
2022-10-01T03:40:25.599Z,5.90
2022-10-01T03:42:52.165Z,4.85
2022-10-01T03:45:18.743Z,4.65
2022-10-01T03:47:51.865Z,4.60
2022-10-01T03:50:21.971Z,5.10
2022-10-01T03:52:50.732Z,5.13
2022-10-01T03:55:17.353Z,5.13
2022-10-01T03:57:43.947Z,4.82
2022-10-01T04:00:14.097Z,4.90
2022-10-01T04:02:40.751Z,4.95
2022-10-01T04:05:10.264Z,5.88
2022-10-01T04:07:42.537Z,5.22
2022-10-01T04:10:09.550Z,5.45
2022-10-01T04:12:36.081Z,5.13
2022-10-01T04:15:05.719Z,4.90
2022-10-01T04:17:36.157Z,4.93
2022-10-01T04:20:02.743Z,5.00
2022-10-01T04:22:31.389Z,5.15
2022-10-01T04:24:57.890Z,5.00
2022-10-01T04:27:24.456Z,5.20
2022-10-01T04:29:50.997Z,5.88
2022-10-01T04:32:19.943Z,5.10
2022-10-01T04:34:52.822Z,5.07
2022-10-01T04:37:23.028Z,5.13
2022-10-01T04:39:50.105Z,5.68
2022-10-01T04:42:19.170Z,5.38
2022-10-01T04:44:45.703Z,5.85
2022-10-01T04:47:14.719Z,6.10
2022-10-01T04:49:43.504Z,6.03
2022-10-01T04:52:12.791Z,5.88
2022-10-01T04:54:39.317Z,6.28
2022-10-01T04:57:09.214Z,5.95
2022-10-01T04:59:38.377Z,6.28
2022-10-01T05:02:07.359Z,6.17
2022-10-01T05:04:34.290Z,6.38
2022-10-01T05:07:00.809Z,6.68
2022-10-01T05:09:29.900Z,6.45
2022-10-01T05:11:56.454Z,5.53
2022-10-01T05:14:23.084Z,5.93
2022-10-01T05:16:51.665Z,5.03
2022-10-01T05:19:18.551Z,5.00
2022-10-01T05:21:47.334Z,4.68
2022-10-01T05:24:16.199Z,5.30
2022-10-01T05:26:45.305Z,5.40
2022-10-01T05:29:11.810Z,4.88
2022-10-01T05:31:44.366Z,5.10
2022-10-01T05:34:11.134Z,5.63
2022-10-01T05:36:37.830Z,5.72
2022-10-01T05:39:04.647Z,4.97
2022-10-01T05:41:31.198Z,4.97
2022-10-01T05:43:57.894Z,5.57
2022-10-01T05:46:24.561Z,5.22
2022-10-01T05:48:51.486Z,5.22
2022-10-01T05:51:18.918Z,5.13
2022-10-01T05:53:50.525Z,4.88
2022-10-01T05:56:19.746Z,5.10
2022-10-01T05:58:46.812Z,5.25
2022-10-01T06:01:15.892Z,5.30
2022-10-01T06:03:44.886Z,5.23
2022-10-01T06:06:14.441Z,4.82
2022-10-01T06:08:46.829Z,5.43
2022-10-01T06:11:13.758Z,5.65
2022-10-01T06:13:45.187Z,5.03
2022-10-01T06:16:13.295Z,5.47
2022-10-01T06:18:40.785Z,5.30
2022-10-01T06:21:08.385Z,4.50
2022-10-01T06:23:36.187Z,5.22
2022-10-01T06:26:05.666Z,4.85
2022-10-01T06:28:34.806Z,5.30
2022-10-01T06:31:05.851Z,5.25
2022-10-01T06:33:32.581Z,5.15
2022-10-01T06:36:03.539Z,4.82
2022-10-01T06:38:31.145Z,4.75
2022-10-01T06:41:01.983Z,4.43
2022-10-01T06:43:30.422Z,4.60
2022-10-01T06:46:00.588Z,5.18
2022-10-01T06:48:31.793Z,4.78
2022-10-01T06:51:01.602Z,4.40
2022-10-01T06:53:31.945Z,4.07
2022-10-01T06:56:04.891Z,4.22
2022-10-01T06:58:37.487Z,4.18
2022-10-01T07:01:04.168Z,4.50
2022-10-01T07:03:31.330Z,3.78
2022-10-01T07:06:02.929Z,4.57
2022-10-01T07:08:29.735Z,4.18
2022-10-01T07:11:05.015Z,3.58
2022-10-01T07:13:31.584Z,3.80
2022-10-01T07:15:58.483Z,4.30
2022-10-01T07:18:25.315Z,3.60
2022-10-01T07:20:56.639Z,3.47
2022-10-01T07:23:24.502Z,3.58
2022-10-01T07:25:53.519Z,3.60
2022-10-01T07:28:23.943Z,3.47
2022-10-01T07:30:58.410Z,3.20
2022-10-01T07:33:29.849Z,4.00
2022-10-01T07:35:59.619Z,3.10
2022-10-01T07:38:26.503Z,3.20
2022-10-01T07:40:54.713Z,3.83
2022-10-01T07:43:22.218Z,3.67
2022-10-01T07:45:52.547Z,3.40
2022-10-01T07:48:19.414Z,3.50
2022-10-01T07:50:49.649Z,3.28
2022-10-01T07:53:19.644Z,3.00
2022-10-01T07:55:49.003Z,3.27
2022-10-01T07:58:15.977Z,2.72
2022-10-01T08:00:43.571Z,3.15
2022-10-01T08:03:12.635Z,3.30
2022-10-01T08:05:43.464Z,3.17
2022-10-01T08:08:10.371Z,3.30
2022-10-01T08:10:41.358Z,3.35
2022-10-01T08:13:17.802Z,2.85
2022-10-01T08:15:54.869Z,2.75
2022-10-01T08:18:22.684Z,2.72
2022-10-01T08:20:49.902Z,2.83
2022-10-01T08:23:22.472Z,2.47
2022-10-01T08:25:49.075Z,2.88
2022-10-01T08:28:18.355Z,2.22
2022-10-01T08:30:45.417Z,2.45
2022-10-01T08:33:13.093Z,2.50
2022-10-01T08:35:40.995Z,2.28
2022-10-01T08:38:07.701Z,1.88
2022-10-01T08:40:39.459Z,1.98
2022-10-01T08:43:14.297Z,1.98
2022-10-01T08:45:45.804Z,1.57
2022-10-01T08:48:18.255Z,2.00
2022-10-01T08:50:53.041Z,1.70
2022-10-01T08:53:34.052Z,1.40
2022-10-01T08:56:04.955Z,1.52
2022-10-01T08:58:41.218Z,1.63
2022-10-01T09:01:11.163Z,1.40
2022-10-01T09:03:39.357Z,1.00
2022-10-01T09:06:19.010Z,1.30
2022-10-01T09:09:31.264Z,1.40
2022-10-01T09:12:39.417Z,1.50
2022-10-01T09:15:21.146Z,1.10
2022-10-01T09:17:59.907Z,1.40
2022-10-01T09:20:39.562Z,1.17
2022-10-01T09:23:06.027Z,0.95
2022-10-01T09:25:35.740Z,1.53
2022-10-01T09:28:15.586Z,1.15
2022-10-01T09:30:51.352Z,1.35
2022-10-01T09:33:22.047Z,1.30
2022-10-01T09:35:50.005Z,1.25
2022-10-01T09:38:42.001Z,1.40
2022-10-01T09:41:16.169Z,1.40
2022-10-01T09:43:48.101Z,1.48
2022-10-01T09:46:18.212Z,1.27
2022-10-01T09:48:59.570Z,1.02
2022-10-01T09:51:56.356Z,1.23
2022-10-01T09:54:28.841Z,1.40
2022-10-01T09:57:06.773Z,1.30
2022-10-01T09:59:44.385Z,1.30
2022-10-01T10:02:24.641Z,1.10
2022-10-01T10:05:18.389Z,1.00
2022-10-01T10:07:47.696Z,1.13
2022-10-01T10:10:25.701Z,0.98
2022-10-01T10:13:07.940Z,0.95
2022-10-01T10:15:34.809Z,1.25
2022-10-01T10:18:13.774Z,0.90
2022-10-01T10:20:43.884Z,0.82
2022-10-01T10:23:19.220Z,0.70
2022-10-01T10:26:03.389Z,0.70
2022-10-01T10:28:44.580Z,0.60
2022-10-01T10:31:15.289Z,0.73
2022-10-01T10:33:55.646Z,0.70
2022-10-01T10:36:28.956Z,0.60
2022-10-01T10:38:59.970Z,0.82
2022-10-01T10:41:29.116Z,0.68
2022-10-01T10:44:08.171Z,0.60
2022-10-01T10:46:39.890Z,0.60
2022-10-01T10:49:15.908Z,0.50
2022-10-01T10:51:54.352Z,0.50
2022-10-01T10:54:24.695Z,0.40
2022-10-01T10:57:02.608Z,0.40
2022-10-01T10:59:32.021Z,0.40
2022-10-01T11:02:05.981Z,0.50
2022-10-01T11:04:42.982Z,0.47
2022-10-01T11:07:18.701Z,0.47
2022-10-01T11:10:02.125Z,0.50
2022-10-01T11:12:40.824Z,0.40
2022-10-01T11:15:26.218Z,0.40
2022-10-01T11:18:12.959Z,0.30
2022-10-01T11:21:00.804Z,0.40
2022-10-01T11:23:48.268Z,0.40
2022-10-01T11:26:34.063Z,0.30
2022-10-01T11:29:12.179Z,0.30
2022-10-01T11:31:59.035Z,0.30
2022-10-01T11:34:49.468Z,0.43
2022-10-01T11:37:18.038Z,0.60
2022-10-01T11:39:48.613Z,0.30
2022-10-01T11:42:22.272Z,0.40
2022-10-01T11:45:03.180Z,0.30
2022-10-01T11:47:43.877Z,0.30
2022-10-01T11:50:28.003Z,0.40
2022-10-01T11:53:02.628Z,0.30
2022-10-01T11:56:00.130Z,0.40
2022-10-01T11:58:50.825Z,0.50
2022-10-01T12:01:47.791Z,0.40
2022-10-01T12:04:25.095Z,0.50
2022-10-01T12:07:16.467Z,0.40
2022-10-01T12:09:55.398Z,0.50
2022-10-01T12:12:30.769Z,0.50
2022-10-01T12:15:11.314Z,0.65
2022-10-01T12:17:52.689Z,0.50
2022-10-01T12:20:43.445Z,0.60
2022-10-01T12:23:18.737Z,0.50
2022-10-01T12:25:49.061Z,2.30
2022-10-01T12:28:25.991Z,0.55
2022-10-01T12:31:08.391Z,0.50
2022-10-01T12:33:56.286Z,0.43
2022-10-01T12:36:43.199Z,0.40
2022-10-01T12:39:21.262Z,0.43
2022-10-01T12:42:05.917Z,0.50
2022-10-01T12:44:40.074Z,0.50
2022-10-01T12:47:42.970Z,0.40
2022-10-01T12:50:11.733Z,0.60
2022-10-01T12:53:05.793Z,1.15
2022-10-01T12:56:09.126Z,0.80
2022-10-01T12:59:09.956Z,0.40
2022-10-01T13:01:45.374Z,0.70
2022-10-01T13:04:26.303Z,0.60
2022-10-01T13:06:55.736Z,0.50
2022-10-01T13:09:34.736Z,0.40
2022-10-01T13:12:36.898Z,0.30
2022-10-01T13:15:08.445Z,0.50
2022-10-01T13:17:55.208Z,0.47
2022-10-01T13:20:34.360Z,5.38
2022-10-01T13:23:26.654Z,1.23
2022-10-01T13:26:17.481Z,5.23
2022-10-01T13:28:57.432Z,1.50
2022-10-01T13:31:41.555Z,0.95
2022-10-01T13:34:46.356Z,0.80
2022-10-01T13:37:16.571Z,0.93
2022-10-01T13:39:48.299Z,0.90
2022-10-01T13:42:27.585Z,0.90
2022-10-01T13:45:00.068Z,0.60
2022-10-01T13:47:28.780Z,1.00
2022-10-01T13:50:06.641Z,0.50
2022-10-01T13:52:34.151Z,0.70
2022-10-01T13:55:02.331Z,0.70
2022-10-01T13:57:42.566Z,1.00
2022-10-01T14:00:11.873Z,0.60
2022-10-01T14:02:45.409Z,0.70
2022-10-01T14:05:18.143Z,0.70
2022-10-01T14:07:50.301Z,1.00
2022-10-01T14:10:19.701Z,0.60
2022-10-01T14:13:08.597Z,0.60
2022-10-01T14:16:03.281Z,1.33
2022-10-01T14:18:38.467Z,0.90
2022-10-01T14:21:29.421Z,0.55
2022-10-01T14:24:05.551Z,0.50
2022-10-01T14:26:43.908Z,0.80
2022-10-01T14:29:51.568Z,0.80
2022-10-01T14:32:48.203Z,0.73
2022-10-01T14:35:20.752Z,1.00
2022-10-01T14:37:47.567Z,0.77
2022-10-01T14:40:22.641Z,0.77
2022-10-01T14:43:10.861Z,0.90
2022-10-01T14:45:37.398Z,0.43
2022-10-01T14:48:05.865Z,0.50
2022-10-01T14:50:34.945Z,0.60
2022-10-01T14:53:01.591Z,0.40
2022-10-01T14:55:29.653Z,2.05
2022-10-01T14:57:58.143Z,6.40
2022-10-01T15:00:30.609Z,6.40
2022-10-01T15:03:08.583Z,2.67
2022-10-01T15:05:39.141Z,8.25
2022-10-01T15:08:11.862Z,3.20
2022-10-01T15:10:50.402Z,1.43
2022-10-01T15:13:39.005Z,0.75
2022-10-01T15:16:11.408Z,0.65
2022-10-01T15:18:41.584Z,1.70
2022-10-01T15:21:17.727Z,1.02
2022-10-01T15:23:44.438Z,1.70
2022-10-01T15:26:16.913Z,0.85
2022-10-01T15:28:44.501Z,0.50
2022-10-01T15:31:14.241Z,0.75
2022-10-01T15:33:41.455Z,0.52
2022-10-01T15:36:14.312Z,0.47
2022-10-01T15:38:46.789Z,0.50
2022-10-01T15:41:39.908Z,0.60
2022-10-01T15:44:08.735Z,1.10
2022-10-01T15:46:37.967Z,0.70
2022-10-01T15:49:24.618Z,0.60
2022-10-01T15:52:21.774Z,0.40
2022-10-01T15:54:58.752Z,1.05
2022-10-01T15:57:33.551Z,0.40
2022-10-01T16:00:02.357Z,0.43
2022-10-01T16:02:31.989Z,0.80
2022-10-01T16:05:09.078Z,0.50
2022-10-01T16:07:36.312Z,0.40
2022-10-01T16:10:31.846Z,0.40
2022-10-01T16:13:01.827Z,0.60
2022-10-01T16:15:31.465Z,0.50
2022-10-01T16:18:05.018Z,0.50
2022-10-01T16:20:31.478Z,0.57
2022-10-01T16:23:37.073Z,0.50
2022-10-01T16:26:29.378Z,0.70
2022-10-01T16:28:57.595Z,0.70
2022-10-01T16:31:25.785Z,0.50
2022-10-01T16:33:54.842Z,0.50
2022-10-01T16:36:24.317Z,9.77
2022-10-01T16:38:51.733Z,2.72
2022-10-01T16:41:23.138Z,0.80
2022-10-01T16:43:54.305Z,0.80
2022-10-01T16:46:21.258Z,0.60
2022-10-01T16:48:52.508Z,0.57
2022-10-01T16:51:19.696Z,0.55
2022-10-01T16:53:47.120Z,0.60
2022-10-01T16:56:14.287Z,0.40
2022-10-01T16:58:48.900Z,0.40
2022-10-01T17:01:18.351Z,0.77
2022-10-01T17:03:47.201Z,3.28
2022-10-01T17:06:13.750Z,6.30
2022-10-01T17:08:40.315Z,2.33
2022-10-01T17:11:12.784Z,3.45
2022-10-01T17:13:42.270Z,2.53
2022-10-01T17:16:09.126Z,1.60
2022-10-01T17:18:39.442Z,1.57
2022-10-01T17:21:09.227Z,0.70
2022-10-01T17:23:36.577Z,1.00
2022-10-01T17:26:06.574Z,0.60
2022-10-01T17:28:36.197Z,1.60
2022-10-01T17:31:08.698Z,0.47
2022-10-01T17:33:35.805Z,0.80
2022-10-01T17:36:07.032Z,0.70
2022-10-01T17:38:35.958Z,0.40
2022-10-01T17:41:02.803Z,0.90
2022-10-01T17:43:31.897Z,0.53
2022-10-01T17:46:00.690Z,0.60
2022-10-01T17:48:30.590Z,0.40
2022-10-01T17:51:08.791Z,3.58
2022-10-01T17:53:42.080Z,3.35
2022-10-01T17:56:17.592Z,1.10
2022-10-01T17:58:46.266Z,1.30
2022-10-01T18:01:20.218Z,6.20
2022-10-01T18:03:47.367Z,1.45
2022-10-01T18:06:18.520Z,10.23
2022-10-01T18:08:55.051Z,10.53
2022-10-01T18:11:24.291Z,8.98
2022-10-01T18:13:51.406Z,7.05
2022-10-01T18:16:19.358Z,6.97
2022-10-01T18:19:51.883Z,11.70
2022-10-01T18:21:35.514Z,9.13
2022-10-01T18:24:04.776Z,31.25
2022-10-01T18:26:32.481Z,24.85
2022-10-01T18:28:59.639Z,2.22
2022-10-01T18:31:29.013Z,13.95
2022-10-01T18:34:03.683Z,1.43
2022-10-01T18:36:58.792Z,0.50
2022-10-01T18:39:36.833Z,0.95
2022-10-01T18:42:15.046Z,5.40
2022-10-01T18:44:41.629Z,4.35
2022-10-01T18:47:23.032Z,4.33
2022-10-01T18:50:39.116Z,4.07
2022-10-01T18:53:18.870Z,8.48
2022-10-01T18:56:05.807Z,1.33
2022-10-01T18:58:38.338Z,0.80
2022-10-01T19:01:23.969Z,0.50
2022-10-01T19:04:17.021Z,0.65
2022-10-01T19:06:43.532Z,1.20
2022-10-01T19:09:16.268Z,0.65
2022-10-01T19:12:20.311Z,0.50
2022-10-01T19:14:56.023Z,0.57
2022-10-01T19:17:50.359Z,0.50
2022-10-01T19:20:35.326Z,0.50
2022-10-01T19:23:24.943Z,0.47
2022-10-01T19:26:01.793Z,0.40
2022-10-01T19:29:09.957Z,0.50
2022-10-01T19:31:36.507Z,0.40
2022-10-01T19:34:12.984Z,0.40
2022-10-01T19:36:50.845Z,0.38
2022-10-01T19:39:24.150Z,0.40
2022-10-01T19:42:02.483Z,0.30
2022-10-01T19:44:44.801Z,0.40
2022-10-01T19:47:30.746Z,0.40
2022-10-01T19:50:02.416Z,0.40
2022-10-01T19:52:38.628Z,0.40
2022-10-01T19:55:14.678Z,0.37
2022-10-01T19:57:43.792Z,0.30
2022-10-01T20:00:19.563Z,0.30
2022-10-01T20:02:54.645Z,0.40
2022-10-01T20:05:34.558Z,0.40
2022-10-01T20:08:28.957Z,0.40
2022-10-01T20:11:01.601Z,0.47
2022-10-01T20:13:37.932Z,0.30
2022-10-01T20:16:04.558Z,0.40
2022-10-01T20:18:52.491Z,0.30
2022-10-01T20:21:50.599Z,0.30
2022-10-01T20:24:48.230Z,0.40
2022-10-01T20:27:28.022Z,0.40
2022-10-01T20:30:05.631Z,0.40
2022-10-01T20:32:51.052Z,0.40
2022-10-01T20:35:32.789Z,0.50
2022-10-01T20:38:20.783Z,0.30
2022-10-01T20:40:52.419Z,0.45
2022-10-01T20:43:46.040Z,0.50
2022-10-01T20:46:19.614Z,0.40
2022-10-01T20:48:53.844Z,0.50
2022-10-01T20:51:46.164Z,0.43
2022-10-01T20:54:23.098Z,0.50
2022-10-01T20:57:06.588Z,0.60
2022-10-01T20:59:45.626Z,0.40
2022-10-01T21:02:45.060Z,0.50
2022-10-01T21:05:26.083Z,0.30
2022-10-01T21:08:07.263Z,0.52
2022-10-01T21:10:36.195Z,0.57
2022-10-01T21:13:12.583Z,0.80
2022-10-01T21:15:55.447Z,0.70
2022-10-01T21:18:28.424Z,0.60
2022-10-01T21:21:35.604Z,0.60
2022-10-01T21:24:22.758Z,0.75
2022-10-01T21:27:09.937Z,0.50
2022-10-01T21:30:00.926Z,0.80
2022-10-01T21:32:33.545Z,0.70
2022-10-01T21:35:22.046Z,0.80
2022-10-01T21:38:04.214Z,0.73
2022-10-01T21:40:52.431Z,0.98
2022-10-01T21:43:34.214Z,0.90
2022-10-01T21:46:36.789Z,0.80
2022-10-01T21:49:17.009Z,0.73
2022-10-01T21:51:45.540Z,0.80
2022-10-01T21:54:25.151Z,0.75
2022-10-01T21:57:20.747Z,0.80
2022-10-01T22:00:13.291Z,0.93
2022-10-01T22:02:48.073Z,1.10
2022-10-01T22:05:35.869Z,0.88
2022-10-01T22:08:32.995Z,0.80
2022-10-01T22:11:07.178Z,0.73
2022-10-01T22:13:49.206Z,0.85
2022-10-01T22:16:19.350Z,1.10
2022-10-01T22:18:49.185Z,1.00
2022-10-01T22:21:51.051Z,1.08
2022-10-01T22:24:41.245Z,0.70
2022-10-01T22:27:14.119Z,0.88
2022-10-01T22:29:47.261Z,0.88
2022-10-01T22:32:17.727Z,0.90
2022-10-01T22:34:49.320Z,0.70
2022-10-01T22:37:26.359Z,0.80
2022-10-01T22:40:07.719Z,0.70
2022-10-01T22:42:41.208Z,0.75
2022-10-01T22:45:16.902Z,0.80
2022-10-01T22:48:08.493Z,0.50
2022-10-01T22:50:47.431Z,0.70
2022-10-01T22:53:33.704Z,0.70
2022-10-01T22:56:05.270Z,0.70
2022-10-01T22:58:46.945Z,0.50
2022-10-01T23:01:30.465Z,0.60
2022-10-01T23:04:09.879Z,0.70
2022-10-01T23:06:46.774Z,0.68
2022-10-01T23:09:44.145Z,0.63
2022-10-01T23:12:32.167Z,0.70
2022-10-01T23:15:32.973Z,0.60
2022-10-01T23:18:26.053Z,0.73
2022-10-01T23:21:33.040Z,0.63
2022-10-01T23:24:06.929Z,0.68
2022-10-01T23:26:38.905Z,0.68
2022-10-01T23:29:10.487Z,0.98
2022-10-01T23:32:19.157Z,1.13
2022-10-01T23:35:20.972Z,0.80
2022-10-01T23:38:03.294Z,0.80
2022-10-01T23:40:40.235Z,0.90
2022-10-01T23:43:17.776Z,0.95
2022-10-01T23:46:15.119Z,0.90
2022-10-01T23:48:52.272Z,1.05
2022-10-01T23:51:27.072Z,1.00
2022-10-01T23:54:02.997Z,1.30
2022-10-01T23:56:50.137Z,1.75
2022-10-01T23:59:36.472Z,1.70
